Time;durP1;ratioP1;P1;durP2;ratioP2;P2;SDS_P1;SDS_P2;PMS_P1;PMS_P2;Temp;Humidity;BMP_temperature;BMP_pressure;BME280_temperature;BME280_humidity;BME280_pressure;Samples;Min_cycle;Max_cycle;Signal;HPM_P1;HPM_P2
2022/01/02 00:00:11;;;;;;;23.33;16.33;;;5.20;99.90;;;;;;5020538;28;20391;-75
2022/01/02 00:02:39;;;;;;;26.15;17.77;;;5.30;99.90;;;;;;5014665;28;20029;-74
2022/01/02 00:05:15;;;;;;;23.73;18.27;;;5.40;99.90;;;;;;5026906;28;20379;-75
2022/01/02 00:07:53;;;;;;;28.25;17.98;;;5.40;99.90;;;;;;5033325;28;20025;-75
2022/01/02 00:10:21;;;;;;;23.58;18.67;;;5.40;99.90;;;;;;5013526;28;20040;-74
2022/01/02 00:12:52;;;;;;;22.73;16.95;;;5.40;99.90;;;;;;5029389;28;20037;-74
2022/01/02 00:15:20;;;;;;;25.30;17.67;;;5.40;99.90;;;;;;5014593;28;20022;-74
2022/01/02 00:17:49;;;;;;;21.83;17.30;;;5.40;99.90;;;;;;5012213;28;20128;-74
2022/01/02 00:20:19;;;;;;;28.00;19.13;;;5.40;99.90;;;;;;5032985;28;20029;-74
2022/01/02 00:22:49;;;;;;;26.15;19.00;;;5.50;99.90;;;;;;5009453;28;20022;-74
2022/01/02 00:25:25;;;;;;;31.40;20.88;;;5.50;99.90;;;;;;5028473;28;20557;-74
2022/01/02 00:27:52;;;;;;;32.22;21.10;;;5.50;99.90;;;;;;5025864;28;20373;-74
2022/01/02 00:30:18;;;;;;;29.70;19.73;;;5.50;99.90;;;;;;5017271;28;20826;-74
2022/01/02 00:32:44;;;;;;;33.90;23.60;;;5.60;99.90;;;;;;5032687;28;20056;-74
2022/01/02 00:35:10;;;;;;;30.73;20.90;;;5.60;99.90;;;;;;5008779;28;20030;-74
2022/01/02 00:37:35;;;;;;;26.00;18.17;;;5.50;99.90;;;;;;5024430;28;20476;-74
2022/01/02 00:40:03;;;;;;;27.92;19.65;;;5.60;99.90;;;;;;5019619;28;20033;-75
2022/01/02 00:42:31;;;;;;;28.20;19.05;;;5.60;99.90;;;;;;5021713;28;20025;-74
2022/01/02 00:45:13;;;;;;;25.23;18.33;;;5.60;99.90;;;;;;5029681;28;20037;-74
2022/01/02 00:47:51;;;;;;;23.33;17.48;;;5.60;99.90;;;;;;5016245;28;20022;-75
2022/01/02 00:50:30;;;;;;;21.27;16.42;;;5.50;99.90;;;;;;5027409;28;20025;-75
2022/01/02 00:52:58;;;;;;;21.05;15.30;;;5.40;99.90;;;;;;5014947;28;20028;-74
2022/01/02 00:55:25;;;;;;;19.02;15.80;;;5.40;99.90;;;;;;5027281;28;20475;-74
2022/01/02 00:57:59;;;;;;;17.10;13.55;;;5.40;99.90;;;;;;5030214;28;20167;-74
2022/01/02 01:00:25;;;;;;;18.33;14.30;;;5.40;99.90;;;;;;5024750;28;20030;-74
2022/01/02 01:02:53;;;;;;;21.05;14.65;;;5.40;99.90;;;;;;5029782;28;20022;-75
2022/01/02 01:05:29;;;;;;;18.42;14.30;;;5.40;99.90;;;;;;5027259;28;20014;-76
2022/01/02 01:07:57;;;;;;;21.10;15.93;;;5.50;99.90;;;;;;5013887;28;20033;-75
2022/01/02 01:10:25;;;;;;;23.15;15.93;;;5.60;99.90;;;;;;5011968;28;20036;-74
2022/01/02 01:12:53;;;;;;;22.58;16.45;;;5.70;99.90;;;;;;5032597;28;20057;-74
2022/01/02 01:15:20;;;;;;;29.73;19.50;;;5.70;99.90;;;;;;5023155;28;20026;-74
2022/01/02 01:17:47;;;;;;;25.92;17.25;;;5.70;99.90;;;;;;5001841;28;20144;-75
2022/01/02 01:20:14;;;;;;;28.83;18.70;;;5.70;99.90;;;;;;5013810;28;20115;-74
2022/01/02 01:22:41;;;;;;;22.10;17.08;;;5.70;99.90;;;;;;5002429;28;20018;-76
2022/01/02 01:25:12;;;;;;;25.40;18.02;;;5.80;99.90;;;;;;5032323;28;20028;-74
2022/01/02 01:27:39;;;;;;;22.58;16.02;;;5.80;99.90;;;;;;5013745;28;20080;-74
2022/01/02 01:30:06;;;;;;;23.85;17.40;;;5.80;99.90;;;;;;4996063;28;20038;-75
2022/01/02 01:32:31;;;;;;;24.02;17.13;;;5.80;99.90;;;;;;5006451;28;20025;-73
2022/01/02 01:34:57;;;;;;;25.05;16.92;;;5.80;99.90;;;;;;5021748;28;20448;-73
2022/01/02 01:37:22;;;;;;;28.67;17.13;;;5.80;99.90;;;;;;5014422;28;20036;-73
2022/01/02 01:39:48;;;;;;;24.40;17.95;;;5.80;99.90;;;;;;5024964;28;20033;-74
2022/01/02 01:42:14;;;;;;;26.67;17.65;;;5.80;99.90;;;;;;5001686;28;20022;-74
2022/01/02 01:47:15;;;;;;;24.52;16.13;;;5.70;99.90;;;;;;5018170;28;20045;-73
2022/01/02 01:49:40;;;;;;;23.52;16.88;;;5.60;99.90;;;;;;5027009;28;20558;-73
2022/01/02 01:52:06;;;;;;;20.90;15.32;;;5.50;99.90;;;;;;5024796;28;20040;-73
2022/01/02 01:54:32;;;;;;;21.80;15.15;;;5.50;99.90;;;;;;5006541;28;20026;-73
2022/01/02 01:56:57;;;;;;;22.75;16.75;;;5.40;99.90;;;;;;5011009;28;20104;-73
2022/01/02 01:59:23;;;;;;;22.48;15.82;;;5.30;99.90;;;;;;5027054;28;20114;-74
2022/01/02 02:01:50;;;;;;;19.65;14.55;;;5.30;99.90;;;;;;5030028;28;20033;-74
2022/01/02 02:04:16;;;;;;;22.63;16.15;;;5.40;99.90;;;;;;5018299;28;20037;-73
2022/01/02 02:06:43;;;;;;;19.73;15.20;;;5.40;99.90;;;;;;5021209;28;20034;-74
2022/01/02 02:09:09;;;;;;;25.40;16.83;;;5.50;99.90;;;;;;5019085;28;20030;-73
2022/01/02 02:11:37;;;;;;;21.58;15.65;;;5.60;99.90;;;;;;5013629;28;20035;-74
2022/01/02 02:14:06;;;;;;;26.65;17.40;;;5.70;99.90;;;;;;5027776;28;20080;-73
2022/01/02 02:16:32;;;;;;;28.58;18.48;;;5.60;99.90;;;;;;5031728;28;20021;-73
2022/01/02 02:18:58;;;;;;;25.75;17.48;;;5.50;99.90;;;;;;5009111;28;20022;-75
2022/01/02 02:21:32;;;;;;;23.27;16.67;;;5.50;99.90;;;;;;5001792;28;20369;-74
2022/01/02 02:23:57;;;;;;;24.15;16.33;;;5.40;99.90;;;;;;5031357;28;20541;-74
2022/01/02 02:26:23;;;;;;;24.05;16.48;;;5.40;99.90;;;;;;5031645;28;20026;-73
2022/01/02 02:28:49;;;;;;;24.27;17.73;;;5.40;99.90;;;;;;5030051;28;20025;-74
2022/01/02 02:31:14;;;;;;;23.10;16.13;;;5.50;99.90;;;;;;5028161;28;20112;-74
2022/01/02 02:33:40;;;;;;;27.08;16.67;;;5.50;99.90;;;;;;5013427;28;20078;-74
2022/01/02 02:36:05;;;;;;;23.05;14.65;;;5.60;99.90;;;;;;5028779;28;20395;-74
2022/01/02 02:38:32;;;;;;;23.15;15.98;;;5.60;99.90;;;;;;5009290;28;20025;-73
2022/01/02 02:40:58;;;;;;;20.70;15.80;;;5.70;99.90;;;;;;5026856;28;20010;-74
2022/01/02 02:43:42;;;;;;;20.38;14.38;;;5.50;99.90;;;;;;5003822;28;20477;-74
2022/01/02 02:49:01;;;;;;;15.73;11.55;;;5.70;99.90;;;;;;5027624;28;20511;-73
2022/01/02 02:54:24;;;;;;;21.30;15.02;;;5.80;99.90;;;;;;5014223;28;20041;-73
2022/01/02 02:56:57;;;;;;;22.13;15.82;;;5.80;99.90;;;;;;5025871;28;20271;-73
2022/01/02 02:59:24;;;;;;;22.38;14.95;;;5.80;99.90;;;;;;5026387;28;20022;-74
2022/01/02 03:01:51;;;;;;;21.50;15.63;;;5.80;99.90;;;;;;5026905;28;20030;-73
2022/01/02 03:04:16;;;;;;;20.70;14.50;;;5.80;99.90;;;;;;5030732;28;20010;-73
2022/01/02 03:06:42;;;;;;;21.75;15.50;;;5.70;99.90;;;;;;5034406;28;20041;-73
2022/01/02 03:09:09;;;;;;;21.40;15.90;;;5.60;99.90;;;;;;5032206;28;20026;-73
2022/01/02 03:11:40;;;;;;;20.10;14.63;;;5.60;99.90;;;;;;5009092;28;20044;-73
2022/01/02 03:14:08;;;;;;;25.70;16.50;;;5.60;99.90;;;;;;5026520;28;20025;-74
2022/01/02 03:16:33;;;;;;;26.17;17.90;;;5.50;99.90;;;;;;5017146;28;20052;-73
2022/01/02 03:18:59;;;;;;;25.88;16.33;;;5.50;99.90;;;;;;5031244;28;20483;-73
2022/01/02 03:21:25;;;;;;;26.83;16.77;;;5.50;99.90;;;;;;5034848;28;20524;-73
2022/01/02 03:23:51;;;;;;;24.75;16.48;;;5.50;99.90;;;;;;5018828;28;20029;-73
2022/01/02 03:26:18;;;;;;;23.83;15.70;;;5.50;99.90;;;;;;5024419;28;20060;-73
2022/01/02 03:28:44;;;;;;;19.38;14.45;;;5.50;99.90;;;;;;5021606;28;20076;-74
2022/01/02 03:31:09;;;;;;;20.35;14.20;;;5.50;99.90;;;;;;5007333;28;20025;-74
2022/01/02 03:33:35;;;;;;;23.15;14.57;;;5.50;99.90;;;;;;5028130;28;20117;-74
2022/01/02 03:36:01;;;;;;;22.08;15.18;;;5.50;99.90;;;;;;5024356;28;20041;-73
2022/01/02 03:38:26;;;;;;;22.50;15.18;;;5.40;99.90;;;;;;5000871;28;20030;-73
2022/01/02 03:40:52;;;;;;;22.50;15.05;;;5.50;99.90;;;;;;4997019;28;20463;-73
2022/01/02 03:43:18;;;;;;;28.08;17.10;;;5.40;99.90;;;;;;5027791;28;20083;-75
2022/01/02 03:45:43;;;;;;;28.85;17.63;;;5.50;99.90;;;;;;5014658;28;20077;-75
2022/01/02 03:48:09;;;;;;;26.75;16.05;;;5.60;99.90;;;;;;5017416;28;20033;-73
2022/01/02 03:50:36;;;;;;;20.42;14.25;;;5.60;99.90;;;;;;5034398;28;20053;-74
2022/01/02 03:53:01;;;;;;;19.13;14.15;;;5.60;99.90;;;;;;5020938;28;20036;-74
2022/01/02 03:55:27;;;;;;;19.38;14.02;;;5.60;99.90;;;;;;5021065;28;20037;-73
2022/01/02 03:57:52;;;;;;;17.50;13.23;;;5.50;99.90;;;;;;5030436;28;20026;-73
2022/01/02 04:00:19;;;;;;;17.77;13.13;;;5.50;99.90;;;;;;5024787;28;20360;-73
2022/01/02 04:02:44;;;;;;;20.02;14.25;;;5.50;99.90;;;;;;5019618;28;20033;-73
2022/01/02 04:05:12;;;;;;;18.92;14.23;;;5.40;99.90;;;;;;5024756;28;20434;-74
2022/01/02 04:07:38;;;;;;;16.38;11.73;;;4.90;99.90;;;;;;5012637;28;20060;-74
2022/01/02 04:10:07;;;;;;;16.50;13.05;;;5.00;99.90;;;;;;5033920;28;20438;-75
2022/01/02 04:12:33;;;;;;;20.67;13.80;;;5.00;99.90;;;;;;5019842;28;20069;-76
2022/01/02 04:14:59;;;;;;;16.42;12.02;;;4.80;99.90;;;;;;5029607;28;20030;-76
2022/01/02 04:17:25;;;;;;;15.57;11.93;;;4.80;99.90;;;;;;5025530;28;20391;-76
2022/01/02 04:19:51;;;;;;;16.95;12.85;;;4.80;99.90;;;;;;5024483;28;20026;-76
2022/01/02 04:22:17;;;;;;;19.75;12.82;;;4.80;99.90;;;;;;5027281;28;20025;-76
2022/01/02 04:24:43;;;;;;;14.65;12.35;;;4.70;99.90;;;;;;5023610;28;20025;-76
2022/01/02 04:27:09;;;;;;;16.23;12.52;;;4.60;99.90;;;;;;5019895;28;20022;-73
2022/01/02 04:29:34;;;;;;;20.05;13.13;;;4.60;99.90;;;;;;5011340;28;20149;-73
2022/01/02 04:32:00;;;;;;;20.08;13.57;;;4.70;99.90;;;;;;5020581;28;20076;-72
2022/01/02 04:34:26;;;;;;;18.00;12.77;;;4.70;99.90;;;;;;5012153;28;20084;-74
2022/01/02 04:36:51;;;;;;;17.65;13.52;;;4.70;99.90;;;;;;5029594;28;20029;-74
2022/01/02 04:39:17;;;;;;;21.70;14.30;;;4.80;99.90;;;;;;5024253;28;20037;-73
2022/01/02 04:41:43;;;;;;;17.35;12.45;;;4.70;99.90;;;;;;5027476;28;20022;-73
2022/01/02 04:44:08;;;;;;;18.63;13.60;;;4.70;99.90;;;;;;5017930;28;20052;-73
2022/01/02 04:46:34;;;;;;;19.00;13.10;;;4.70;99.90;;;;;;5026775;28;20033;-72
2022/01/02 04:49:00;;;;;;;20.20;13.98;;;4.80;99.90;;;;;;5022552;28;20035;-72
2022/01/02 04:51:25;;;;;;;18.15;13.43;;;4.90;99.90;;;;;;5013083;28;20025;-73
2022/01/02 04:53:51;;;;;;;20.15;14.20;;;4.90;99.90;;;;;;5022363;28;20029;-73
2022/01/02 04:56:16;;;;;;;18.02;14.13;;;4.90;99.90;;;;;;4998774;28;20030;-72
2022/01/02 04:58:43;;;;;;;19.45;14.75;;;4.90;99.90;;;;;;5030952;28;20037;-72
2022/01/02 05:01:12;;;;;;;24.00;15.70;;;4.80;99.90;;;;;;5013151;28;20496;-73
2022/01/02 05:03:46;;;;;;;21.85;14.73;;;4.90;99.90;;;;;;5014726;28;20025;-74
2022/01/02 05:06:12;;;;;;;20.20;15.65;;;4.70;99.90;;;;;;5013044;28;20029;-74
2022/01/02 05:08:37;;;;;;;21.48;15.00;;;4.60;99.90;;;;;;5015133;28;20119;-74
2022/01/02 05:11:03;;;;;;;22.20;15.23;;;4.70;99.90;;;;;;5010765;28;20080;-74
2022/01/02 05:13:29;;;;;;;19.52;14.40;;;4.70;99.90;;;;;;5006681;28;20133;-75
2022/01/02 05:15:55;;;;;;;18.55;13.55;;;4.90;99.90;;;;;;5019032;28;20163;-74
2022/01/02 05:18:20;;;;;;;19.05;13.90;;;5.00;99.90;;;;;;5024880;28;20025;-74
2022/01/02 05:20:46;;;;;;;19.60;13.98;;;5.10;99.90;;;;;;5019710;28;20372;-76
2022/01/02 05:23:16;;;;;;;20.75;13.85;;;5.20;99.90;;;;;;5029785;28;20018;-75
2022/01/02 05:25:44;;;;;;;19.42;13.95;;;5.20;99.90;;;;;;5015384;28;20057;-76
2022/01/02 05:28:10;;;;;;;17.42;13.52;;;5.40;99.90;;;;;;5024775;28;20101;-77
2022/01/02 05:30:40;;;;;;;17.83;13.05;;;5.50;99.90;;;;;;5001798;28;20061;-75
2022/01/02 05:33:10;;;;;;;18.05;12.73;;;5.50;99.90;;;;;;5002280;28;20072;-75
2022/01/02 05:35:39;;;;;;;17.52;12.50;;;5.60;99.90;;;;;;5007903;28;20084;-76
2022/01/02 05:38:04;;;;;;;17.67;12.15;;;5.60;99.90;;;;;;5025859;28;20030;-75
2022/01/02 05:40:32;;;;;;;15.90;11.95;;;5.60;99.90;;;;;;5019507;28;20079;-76
2022/01/02 05:43:05;;;;;;;17.73;12.55;;;5.60;99.90;;;;;;5019066;28;20036;-75
2022/01/02 05:45:31;;;;;;;15.90;12.75;;;5.70;99.90;;;;;;5024282;28;20447;-75
2022/01/02 05:47:57;;;;;;;20.42;12.85;;;5.80;99.90;;;;;;5009451;28;20026;-75
2022/01/02 05:50:23;;;;;;;18.02;12.00;;;5.80;99.90;;;;;;5006750;28;20026;-75
2022/01/02 05:52:49;;;;;;;15.95;12.15;;;5.80;99.90;;;;;;5025544;28;20025;-76
2022/01/02 05:55:15;;;;;;;14.75;11.70;;;5.70;99.90;;;;;;5020259;28;20488;-76
2022/01/02 05:57:40;;;;;;;15.65;11.90;;;5.80;99.90;;;;;;5018156;28;20034;-74
2022/01/02 06:00:08;;;;;;;18.05;12.15;;;5.80;99.90;;;;;;5019672;28;20424;-73
2022/01/02 06:02:34;;;;;;;16.23;12.05;;;5.80;99.90;;;;;;5018181;28;20065;-75
2022/01/02 06:05:03;;;;;;;16.92;12.18;;;5.80;99.90;;;;;;5002116;28;20045;-76
2022/01/02 06:07:32;;;;;;;18.63;13.20;;;5.70;99.90;;;;;;5030054;28;20108;-76
2022/01/02 06:09:58;;;;;;;19.02;13.27;;;5.70;99.90;;;;;;5020799;28;20503;-77
2022/01/02 06:12:23;;;;;;;16.23;12.20;;;5.80;99.90;;;;;;5031051;28;20034;-76
2022/01/02 06:14:49;;;;;;;17.63;12.43;;;5.80;99.90;;;;;;5014113;28;20021;-76
2022/01/02 06:17:15;;;;;;;19.60;13.07;;;5.80;99.90;;;;;;5018704;28;20029;-76
2022/01/02 06:19:41;;;;;;;16.00;11.88;;;5.80;99.90;;;;;;5010268;28;20026;-76
2022/01/02 06:22:09;;;;;;;17.42;13.45;;;6.00;99.90;;;;;;5030207;28;20105;-76
2022/01/02 06:24:37;;;;;;;18.45;14.20;;;6.00;99.90;;;;;;5002858;28;20026;-75
2022/01/02 06:27:03;;;;;;;20.92;14.95;;;6.00;99.90;;;;;;5001202;28;20024;-77
2022/01/02 06:29:28;;;;;;;24.17;16.65;;;6.00;99.90;;;;;;5022924;28;20109;-77
2022/01/02 06:31:54;;;;;;;19.50;13.38;;;6.00;99.90;;;;;;5007512;28;20491;-77
2022/01/02 06:34:19;;;;;;;23.80;17.10;;;6.10;99.90;;;;;;5014215;28;20484;-77
2022/01/02 06:36:47;;;;;;;22.48;15.13;;;6.10;99.90;;;;;;5031248;28;20440;-77
2022/01/02 06:39:12;;;;;;;15.68;12.65;;;6.00;99.90;;;;;;5027021;28;20030;-77
2022/01/02 06:41:38;;;;;;;18.48;13.68;;;6.00;99.90;;;;;;5007386;28;20476;-77
2022/01/02 06:44:04;;;;;;;18.00;12.45;;;6.00;99.90;;;;;;5011681;28;20022;-78
2022/01/02 06:46:29;;;;;;;15.90;12.23;;;6.00;99.90;;;;;;5029514;28;20133;-77
2022/01/02 06:48:55;;;;;;;15.65;11.88;;;6.00;99.90;;;;;;5020337;28;20017;-77
2022/01/02 06:51:20;;;;;;;18.88;12.80;;;6.00;99.90;;;;;;5006821;28;20040;-77
2022/01/02 06:53:46;;;;;;;16.50;12.52;;;6.00;99.90;;;;;;5029330;28;20112;-77
2022/01/02 06:56:11;;;;;;;20.63;14.25;;;6.00;99.90;;;;;;5007051;28;20033;-77
2022/01/02 06:58:38;;;;;;;18.58;13.20;;;6.00;99.90;;;;;;5029029;28;20030;-76
2022/01/02 07:01:05;;;;;;;18.25;14.02;;;6.10;99.90;;;;;;5031584;28;20020;-77
2022/01/02 07:03:31;;;;;;;17.05;13.02;;;6.00;99.90;;;;;;5027454;28;20030;-77
2022/01/02 07:05:56;;;;;;;18.58;15.20;;;6.00;99.90;;;;;;5024152;28;20060;-77
2022/01/02 07:08:22;;;;;;;17.15;13.80;;;6.00;99.90;;;;;;5029153;28;20022;-75
2022/01/02 07:10:48;;;;;;;16.83;13.25;;;5.90;99.90;;;;;;5031292;28;20035;-75
2022/01/02 07:13:16;;;;;;;18.52;14.25;;;6.10;99.90;;;;;;5026969;28;20025;-74
2022/01/02 07:15:42;;;;;;;15.82;12.07;;;6.00;99.90;;;;;;5017308;28;20044;-76
2022/01/02 07:18:07;;;;;;;14.85;11.57;;;5.90;99.90;;;;;;5027296;28;20045;-76
2022/01/02 07:20:38;;;;;;;17.52;11.80;;;5.90;99.90;;;;;;5024438;28;20030;-76
2022/01/02 07:23:03;;;;;;;17.77;12.05;;;5.80;99.90;;;;;;5010530;28;20064;-76
2022/01/02 07:25:31;;;;;;;18.15;12.70;;;5.80;99.90;;;;;;5031234;28;20026;-76
2022/01/02 07:27:59;;;;;;;17.75;13.98;;;5.50;99.90;;;;;;5009944;28;20141;-76
2022/01/02 07:30:25;;;;;;;17.60;12.70;;;5.40;99.90;;;;;;5024690;28;20024;-76
2022/01/02 07:32:50;;;;;;;18.70;13.13;;;5.30;99.90;;;;;;5009930;28;20034;-77
2022/01/02 07:35:16;;;;;;;17.85;13.07;;;5.30;99.90;;;;;;5034568;28;20021;-76
2022/01/02 07:37:42;;;;;;;18.33;13.30;;;5.30;99.90;;;;;;5027619;28;20030;-75
2022/01/02 07:40:08;;;;;;;19.67;14.48;;;5.20;99.90;;;;;;5030931;28;20053;-75
2022/01/02 07:42:33;;;;;;;18.25;13.90;;;5.20;99.90;;;;;;5010284;28;20021;-76
2022/01/02 07:44:59;;;;;;;18.45;14.52;;;5.20;99.90;;;;;;5020400;28;20049;-76
2022/01/02 07:47:25;;;;;;;19.83;14.13;;;5.20;99.90;;;;;;5022313;28;20080;-76
2022/01/02 07:49:50;;;;;;;20.02;14.10;;;5.20;99.90;;;;;;5013404;28;20032;-76
2022/01/02 07:52:16;;;;;;;20.27;14.13;;;5.10;99.90;;;;;;5006813;28;20480;-76
2022/01/02 07:54:41;;;;;;;17.60;14.07;;;4.90;99.90;;;;;;5006695;28;20030;-76
2022/01/02 07:57:07;;;;;;;20.15;14.45;;;4.90;99.90;;;;;;5024145;28;20041;-75
2022/01/02 07:59:35;;;;;;;16.05;13.15;;;4.80;99.90;;;;;;5031150;28;20030;-76
2022/01/02 08:02:01;;;;;;;17.05;14.40;;;4.80;99.90;;;;;;4999213;28;20105;-76
2022/01/02 08:04:29;;;;;;;19.27;12.90;;;4.90;99.90;;;;;;5027414;28;20105;-76
2022/01/02 08:06:55;;;;;;;18.20;13.57;;;4.90;99.90;;;;;;5021811;28;20374;-74
2022/01/02 08:09:25;;;;;;;18.52;13.63;;;4.70;99.90;;;;;;5013758;28;20087;-76
2022/01/02 08:11:51;;;;;;;18.27;13.23;;;4.70;99.90;;;;;;5013063;28;20022;-75
2022/01/02 08:14:17;;;;;;;20.00;15.93;;;4.80;99.90;;;;;;5027315;28;20030;-77
2022/01/02 08:16:42;;;;;;;16.05;12.32;;;4.70;99.90;;;;;;5024961;28;20485;-77
2022/01/02 08:19:08;;;;;;;18.17;13.43;;;4.70;99.90;;;;;;5002911;28;20029;-77
2022/01/02 08:21:34;;;;;;;19.02;14.45;;;4.70;99.90;;;;;;5023052;28;20018;-77
2022/01/02 08:24:00;;;;;;;17.13;13.27;;;4.80;99.90;;;;;;5027374;28;20494;-77
2022/01/02 08:26:25;;;;;;;19.20;13.88;;;4.90;99.90;;;;;;5007361;28;20024;-77
2022/01/02 08:28:52;;;;;;;25.08;18.30;;;5.00;99.90;;;;;;5017978;28;20074;-76
2022/01/02 08:31:17;;;;;;;36.53;26.35;;;5.10;99.90;;;;;;5018533;28;20503;-77
2022/01/02 08:33:43;;;;;;;42.75;32.95;;;5.20;99.90;;;;;;5027141;28;20042;-77
2022/01/02 08:36:11;;;;;;;25.05;18.85;;;5.30;99.90;;;;;;5024242;28;20403;-77
2022/01/02 08:38:36;;;;;;;23.88;17.20;;;5.20;99.90;;;;;;5020200;28;20037;-77
2022/01/02 08:41:03;;;;;;;24.10;18.13;;;5.20;99.90;;;;;;5022977;28;20022;-76
2022/01/02 08:43:29;;;;;;;26.65;20.90;;;5.30;99.90;;;;;;5009521;28;20036;-77
2022/01/02 08:45:54;;;;;;;21.42;17.13;;;5.10;99.90;;;;;;5023990;28;20635;-76
2022/01/02 08:48:22;;;;;;;20.35;14.63;;;5.40;99.90;;;;;;5020033;28;20034;-76
2022/01/02 08:50:48;;;;;;;20.15;15.10;;;5.50;99.90;;;;;;5022823;28;20032;-76
2022/01/02 08:53:13;;;;;;;21.50;14.38;;;5.60;99.90;;;;;;5026797;28;20029;-77
2022/01/02 08:55:39;;;;;;;18.52;15.05;;;5.70;99.90;;;;;;5013284;28;20374;-76
2022/01/02 08:58:04;;;;;;;22.85;18.70;;;5.70;99.90;;;;;;5026533;28;20034;-77
2022/01/02 09:00:33;;;;;;;26.55;20.23;;;5.90;99.90;;;;;;5014947;28;20030;-76
2022/01/02 09:02:58;;;;;;;28.30;21.25;;;5.90;99.90;;;;;;4999958;28;20031;-76
2022/01/02 09:05:26;;;;;;;38.35;30.90;;;6.00;99.90;;;;;;5003926;28;20025;-76
2022/01/02 09:07:52;;;;;;;32.22;25.23;;;6.10;99.90;;;;;;5024533;28;20026;-76
2022/01/02 09:10:18;;;;;;;30.15;25.10;;;6.10;99.90;;;;;;5021669;28;20556;-76
2022/01/02 09:12:44;;;;;;;22.63;16.95;;;6.20;99.90;;;;;;5019687;28;20032;-76
2022/01/02 09:15:11;;;;;;;21.90;17.05;;;6.30;99.90;;;;;;5032571;28;20025;-75
2022/01/02 09:17:37;;;;;;;19.00;14.68;;;6.40;99.90;;;;;;5010313;28;20025;-76
2022/01/02 09:20:05;;;;;;;16.50;14.05;;;6.50;99.90;;;;;;5025175;28;20029;-76
2022/01/02 09:22:30;;;;;;;17.50;13.43;;;6.40;99.90;;;;;;5019468;28;20025;-77
2022/01/02 09:24:56;;;;;;;16.88;13.20;;;6.40;99.90;;;;;;5003807;28;20022;-77
2022/01/02 09:27:21;;;;;;;18.45;13.63;;;6.50;99.90;;;;;;5009936;28;20022;-75
2022/01/02 09:29:47;;;;;;;16.05;13.23;;;6.60;99.90;;;;;;5021695;28;20397;-76
2022/01/02 09:32:13;;;;;;;17.00;13.60;;;6.70;99.90;;;;;;5001825;28;20026;-76
2022/01/02 09:34:38;;;;;;;16.73;13.38;;;6.70;99.90;;;;;;5021238;28;20022;-76
2022/01/02 09:37:04;;;;;;;16.35;12.82;;;6.80;99.90;;;;;;5024671;28;20026;-75
2022/01/02 09:39:33;;;;;;;18.48;13.30;;;7.00;99.90;;;;;;5022918;28;20423;-76
2022/01/02 09:41:58;;;;;;;15.02;12.00;;;7.00;99.90;;;;;;5015552;28;20104;-76
2022/01/02 09:44:24;;;;;;;14.98;11.38;;;7.10;99.90;;;;;;5023051;28;20113;-76
2022/01/02 09:46:53;;;;;;;18.23;14.27;;;7.20;99.90;;;;;;5028139;28;20034;-76
2022/01/02 09:49:20;;;;;;;16.92;13.15;;;7.00;99.90;;;;;;5023461;28;20078;-76
2022/01/02 09:51:46;;;;;;;16.10;11.82;;;6.90;99.90;;;;;;5019098;28;20029;-76
2022/01/02 09:54:17;;;;;;;16.17;12.57;;;6.90;99.90;;;;;;5027514;28;20396;-77
2022/01/02 09:56:44;;;;;;;17.50;12.48;;;6.90;99.90;;;;;;5018756;28;20037;-77
2022/01/02 09:59:12;;;;;;;15.95;11.35;;;7.00;99.90;;;;;;5003681;28;20022;-76
2022/01/02 10:01:38;;;;;;;18.55;11.70;;;7.10;99.90;;;;;;5020630;28;20029;-76
2022/01/02 10:04:03;;;;;;;17.55;14.10;;;7.30;99.90;;;;;;5000588;28;20113;-76
2022/01/02 10:06:48;;;;;;;17.52;11.85;;;7.50;99.90;;;;;;5025085;28;20038;-76
2022/01/02 10:09:29;;;;;;;16.35;11.73;;;7.70;99.90;;;;;;5025360;28;20025;-76
2022/01/02 10:12:27;;;;;;;14.23;11.18;;;7.70;99.90;;;;;;5023466;28;20026;-76
2022/01/02 10:15:21;;;;;;;14.85;10.38;;;7.80;99.90;;;;;;4993064;28;20369;-76
2022/01/02 10:18:11;;;;;;;15.88;11.35;;;7.80;99.90;;;;;;5018536;28;20052;-76
2022/01/02 10:20:46;;;;;;;15.30;10.73;;;7.80;99.90;;;;;;5003120;28;20587;-76
2022/01/02 10:23:18;;;;;;;13.50;10.05;;;7.80;99.90;;;;;;5004782;28;20029;-76
2022/01/02 10:25:47;;;;;;;14.10;11.00;;;7.70;99.90;;;;;;5018309;28;20033;-76
2022/01/02 10:28:31;;;;;;;15.77;10.52;;;7.70;99.90;;;;;;5020393;28;20072;-76
2022/01/02 10:30:58;;;;;;;15.82;10.75;;;7.70;99.90;;;;;;5006747;28;20026;-76
2022/01/02 10:33:29;;;;;;;14.90;10.52;;;7.60;99.90;;;;;;5003978;28;20507;-76
2022/01/02 10:36:03;;;;;;;14.35;11.20;;;7.60;99.90;;;;;;5023389;28;20109;-76
2022/01/02 10:38:31;;;;;;;14.10;10.30;;;7.60;99.90;;;;;;4999503;28;20091;-76
2022/01/02 10:40:57;;;;;;;13.88;10.40;;;7.50;99.90;;;;;;5021742;28;20063;-76
2022/01/02 10:43:29;;;;;;;15.82;10.73;;;7.60;99.90;;;;;;5009257;28;20104;-76
2022/01/02 10:45:57;;;;;;;13.10;11.05;;;7.50;99.90;;;;;;5014670;28;20050;-76
2022/01/02 10:48:33;;;;;;;15.60;11.10;;;7.60;99.90;;;;;;5024716;28;20100;-76
2022/01/02 10:51:17;;;;;;;15.55;11.60;;;7.50;99.90;;;;;;5020266;28;20551;-76
2022/01/02 10:53:56;;;;;;;13.43;10.80;;;7.50;99.90;;;;;;4989326;28;20116;-75
2022/01/02 10:56:26;;;;;;;16.58;11.90;;;7.50;99.90;;;;;;5012439;28;20053;-75
2022/01/02 10:58:52;;;;;;;16.10;12.05;;;7.50;99.90;;;;;;5020673;28;20038;-75
2022/01/02 11:01:18;;;;;;;15.10;11.10;;;7.60;99.90;;;;;;5016583;28;20034;-75
2022/01/02 11:03:47;;;;;;;13.55;11.02;;;7.60;99.90;;;;;;5020541;28;20030;-77
2022/01/02 11:06:26;;;;;;;13.40;10.30;;;7.60;99.90;;;;;;5024527;28;20028;-77
2022/01/02 11:08:57;;;;;;;13.70;10.85;;;7.70;99.90;;;;;;5024843;28;20064;-77
2022/01/02 11:11:23;;;;;;;12.05;9.73;;;7.80;99.90;;;;;;5006374;28;20036;-76
2022/01/02 11:13:50;;;;;;;13.55;10.02;;;7.90;99.90;;;;;;5018160;28;20022;-75
2022/01/02 11:16:16;;;;;;;12.77;10.18;;;8.00;99.90;;;;;;5006077;28;20044;-76
2022/01/02 11:18:42;;;;;;;17.30;11.23;;;8.10;99.90;;;;;;5024689;28;20060;-76
2022/01/02 11:21:11;;;;;;;17.23;12.52;;;8.10;99.90;;;;;;5019229;28;20127;-76
2022/01/02 11:23:52;;;;;;;15.13;11.57;;;8.10;99.90;;;;;;5004006;28;20042;-76
2022/01/02 11:26:34;;;;;;;16.55;11.48;;;8.10;99.90;;;;;;5009197;28;20105;-76
2022/01/02 11:28:59;;;;;;;15.70;10.82;;;8.20;99.90;;;;;;5028379;28;20574;-76
2022/01/02 11:31:33;;;;;;;15.40;10.98;;;8.30;99.90;;;;;;5009398;28;20030;-76
2022/01/02 11:34:20;;;;;;;13.90;11.60;;;8.30;99.90;;;;;;5031077;28;20040;-76
2022/01/02 11:36:45;;;;;;;18.10;13.85;;;8.20;99.90;;;;;;5021579;28;20534;-73
2022/01/02 11:39:11;;;;;;;16.38;13.63;;;8.20;99.90;;;;;;5016415;28;20034;-76
2022/01/02 11:41:37;;;;;;;15.35;12.00;;;8.10;99.90;;;;;;5010453;28;20025;-76
2022/01/02 11:44:05;;;;;;;14.60;10.88;;;8.00;99.90;;;;;;5014131;28;20035;-76
2022/01/02 11:46:57;;;;;;;18.02;13.23;;;8.00;99.90;;;;;;5020381;28;20551;-76
2022/01/02 11:49:25;;;;;;;14.50;11.20;;;8.00;99.90;;;;;;5003275;28;20033;-76
2022/01/02 11:51:54;;;;;;;12.65;10.43;;;8.00;99.90;;;;;;5007111;28;20363;-76
2022/01/02 11:54:32;;;;;;;13.07;10.50;;;8.00;99.90;;;;;;5002537;28;20087;-76
2022/01/02 11:57:26;;;;;;;12.60;10.77;;;8.00;99.90;;;;;;5025630;28;20499;-76
2022/01/02 11:59:56;;;;;;;13.52;11.00;;;7.90;99.90;;;;;;5009814;28;20058;-76
2022/01/02 12:02:23;;;;;;;16.08;12.13;;;7.90;99.90;;;;;;5026965;28;20017;-76
2022/01/02 12:07:41;;;;;;;15.35;11.38;;;7.90;99.90;;;;;;5033821;28;20037;-76
2022/01/02 12:10:27;;;;;;;13.45;10.98;;;7.90;99.90;;;;;;5006619;28;20488;-76
2022/01/02 12:13:10;;;;;;;16.27;12.90;;;7.80;99.90;;;;;;5007079;28;20029;-73
2022/01/02 12:15:38;;;;;;;15.82;12.55;;;7.80;99.90;;;;;;5027039;28;20766;-75
2022/01/02 12:18:24;;;;;;;17.50;12.98;;;7.80;99.90;;;;;;5025065;28;20636;-77
2022/01/02 12:20:50;;;;;;;17.75;12.27;;;7.80;99.90;;;;;;5009420;28;20034;-76
2022/01/02 12:23:33;;;;;;;17.30;12.27;;;7.80;99.90;;;;;;5024910;28;20028;-76
2022/01/02 12:26:09;;;;;;;15.30;11.70;;;7.80;99.90;;;;;;5026957;28;20045;-76
2022/01/02 12:28:45;;;;;;;15.73;11.35;;;7.70;99.90;;;;;;5016183;28;20030;-75
2022/01/02 12:31:13;;;;;;;14.70;10.07;;;7.70;99.90;;;;;;5006674;28;20080;-75
2022/01/02 12:33:39;;;;;;;15.15;11.07;;;7.60;99.90;;;;;;5026561;28;20026;-75
2022/01/02 12:36:21;;;;;;;12.90;10.20;;;7.70;99.90;;;;;;5022703;28;20293;-75
2022/01/02 12:38:51;;;;;;;13.70;10.50;;;7.70;99.90;;;;;;5020298;28;20022;-75
2022/01/02 12:41:21;;;;;;;14.43;10.57;;;7.70;99.90;;;;;;5003717;28;20041;-75
2022/01/02 12:44:10;;;;;;;13.77;9.70;;;7.70;99.90;;;;;;5032806;28;20113;-76
2022/01/02 12:46:45;;;;;;;14.10;9.80;;;7.80;99.90;;;;;;5012903;28;20024;-76
2022/01/02 12:49:12;;;;;;;13.33;10.43;;;7.90;99.90;;;;;;5024251;28;20079;-76
2022/01/02 12:51:43;;;;;;;14.90;10.52;;;7.90;99.90;;;;;;5002231;28;20098;-76
2022/01/02 12:54:20;;;;;;;13.98;9.77;;;7.90;99.90;;;;;;5021691;28;20025;-75